sensor_id;sensor_type;location;lat;lon;timestamp;pressure;altitude;pressure_sealevel;temperature;humidity
57847;BME280;43675;50.030;21.952;2023-05-11T00:00:36;99071.45;;;5.57;54.36
57847;BME280;43675;50.030;21.952;2023-05-11T00:03:13;99074.86;;;5.53;54.42
57847;BME280;43675;50.030;21.952;2023-05-11T00:05:39;99074.18;;;5.49;54.57
57847;BME280;43675;50.030;21.952;2023-05-11T00:08:06;99074.80;;;5.45;54.80
57847;BME280;43675;50.030;21.952;2023-05-11T00:10:32;99074.05;;;5.41;54.80
57847;BME280;43675;50.030;21.952;2023-05-11T00:12:59;99076.55;;;5.38;54.90
57847;BME280;43675;50.030;21.952;2023-05-11T00:15:26;99075.49;;;5.34;55.00
57847;BME280;43675;50.030;21.952;2023-05-11T00:17:52;99075.31;;;5.30;55.29
57847;BME280;43675;50.030;21.952;2023-05-11T00:20:19;99075.50;;;5.25;55.23
57847;BME280;43675;50.030;21.952;2023-05-11T00:22:45;99071.05;;;5.19;55.52
57847;BME280;43675;50.030;21.952;2023-05-11T00:25:12;99068.28;;;5.13;55.50
57847;BME280;43675;50.030;21.952;2023-05-11T00:27:39;99068.52;;;5.08;55.54
57847;BME280;43675;50.030;21.952;2023-05-11T00:30:06;99067.30;;;5.03;55.95
57847;BME280;43675;50.030;21.952;2023-05-11T00:32:33;99063.69;;;4.97;56.14
57847;BME280;43675;50.030;21.952;2023-05-11T00:34:59;99059.67;;;4.94;56.26
57847;BME280;43675;50.030;21.952;2023-05-11T00:37:26;99058.26;;;4.89;56.22
57847;BME280;43675;50.030;21.952;2023-05-11T00:39:52;99060.85;;;4.85;56.43
57847;BME280;43675;50.030;21.952;2023-05-11T00:42:19;99059.97;;;4.82;56.31
57847;BME280;43675;50.030;21.952;2023-05-11T00:44:46;99060.42;;;4.81;56.88
57847;BME280;43675;50.030;21.952;2023-05-11T00:47:12;99056.80;;;4.80;56.82
57847;BME280;43675;50.030;21.952;2023-05-11T00:49:39;99058.05;;;4.78;57.21
57847;BME280;43675;50.030;21.952;2023-05-11T00:52:07;99053.55;;;4.75;56.90
57847;BME280;43675;50.030;21.952;2023-05-11T00:54:34;99053.89;;;4.74;57.04
57847;BME280;43675;50.030;21.952;2023-05-11T00:57:02;99055.79;;;4.71;56.96
57847;BME280;43675;50.030;21.952;2023-05-11T00:59:28;99058.98;;;4.68;57.29
57847;BME280;43675;50.030;21.952;2023-05-11T01:01:55;99055.30;;;4.64;57.38
57847;BME280;43675;50.030;21.952;2023-05-11T01:04:22;99054.48;;;4.61;57.33
57847;BME280;43675;50.030;21.952;2023-05-11T01:09:45;99053.55;;;4.55;57.55
57847;BME280;43675;50.030;21.952;2023-05-11T01:15:10;99057.30;;;4.51;57.43
57847;BME280;43675;50.030;21.952;2023-05-11T01:20:14;99053.02;;;4.45;57.62
57847;BME280;43675;50.030;21.952;2023-05-11T01:22:51;99051.79;;;4.40;57.99
57847;BME280;43675;50.030;21.952;2023-05-11T01:30:53;99052.75;;;4.29;58.34
57847;BME280;43675;50.030;21.952;2023-05-11T01:33:26;99049.16;;;4.25;58.39
57847;BME280;43675;50.030;21.952;2023-05-11T01:36:01;99051.21;;;4.21;58.48
57847;BME280;43675;50.030;21.952;2023-05-11T01:38:32;99049.05;;;4.18;58.60
57847;BME280;43675;50.030;21.952;2023-05-11T01:41:03;99046.98;;;4.14;58.84
57847;BME280;43675;50.030;21.952;2023-05-11T01:43:34;99054.69;;;4.09;58.63
57847;BME280;43675;50.030;21.952;2023-05-11T01:46:02;99056.05;;;4.04;58.99
57847;BME280;43675;50.030;21.952;2023-05-11T01:48:33;99060.09;;;4.01;59.12
57847;BME280;43675;50.030;21.952;2023-05-11T01:51:04;99056.89;;;3.98;59.47
57847;BME280;43675;50.030;21.952;2023-05-11T01:53:34;99057.45;;;4.01;59.21
57847;BME280;43675;50.030;21.952;2023-05-11T01:56:03;99060.02;;;4.02;59.47
57847;BME280;43675;50.030;21.952;2023-05-11T01:58:31;99062.04;;;3.96;59.49
57847;BME280;43675;50.030;21.952;2023-05-11T02:00:59;99056.70;;;3.90;59.58
57847;BME280;43675;50.030;21.952;2023-05-11T02:03:27;99058.23;;;3.86;59.82
57847;BME280;43675;50.030;21.952;2023-05-11T02:05:56;99058.09;;;3.82;59.77
57847;BME280;43675;50.030;21.952;2023-05-11T02:08:24;99058.91;;;3.77;59.95
57847;BME280;43675;50.030;21.952;2023-05-11T02:10:52;99059.77;;;3.74;60.17
57847;BME280;43675;50.030;21.952;2023-05-11T02:13:21;99058.13;;;3.70;60.22
57847;BME280;43675;50.030;21.952;2023-05-11T02:15:50;99060.10;;;3.66;60.28
57847;BME280;43675;50.030;21.952;2023-05-11T02:18:18;99054.58;;;3.61;60.26
57847;BME280;43675;50.030;21.952;2023-05-11T02:20:46;99056.46;;;3.59;60.78
57847;BME280;43675;50.030;21.952;2023-05-11T02:23:13;99055.55;;;3.57;60.71
57847;BME280;43675;50.030;21.952;2023-05-11T02:25:40;99056.19;;;3.55;60.98
57847;BME280;43675;50.030;21.952;2023-05-11T02:28:08;99057.40;;;3.52;61.11
57847;BME280;43675;50.030;21.952;2023-05-11T02:30:41;99060.33;;;3.49;61.01
57847;BME280;43675;50.030;21.952;2023-05-11T02:33:15;99058.19;;;3.48;61.41
57847;BME280;43675;50.030;21.952;2023-05-11T02:35:45;99060.85;;;3.44;61.17
57847;BME280;43675;50.030;21.952;2023-05-11T02:38:13;99059.09;;;3.41;61.41
57847;BME280;43675;50.030;21.952;2023-05-11T02:40:46;99058.05;;;3.37;61.52
57847;BME280;43675;50.030;21.952;2023-05-11T02:43:19;99061.71;;;3.34;61.55
57847;BME280;43675;50.030;21.952;2023-05-11T02:45:49;99062.34;;;3.32;61.79
57847;BME280;43675;50.030;21.952;2023-05-11T02:48:25;99061.13;;;3.30;61.70
57847;BME280;43675;50.030;21.952;2023-05-11T02:50:54;99065.62;;;3.25;61.67
57847;BME280;43675;50.030;21.952;2023-05-11T02:53:26;99067.33;;;3.23;61.87
57847;BME280;43675;50.030;21.952;2023-05-11T02:55:54;99068.84;;;3.20;62.18
57847;BME280;43675;50.030;21.952;2023-05-11T02:58:21;99066.71;;;3.18;62.50
57847;BME280;43675;50.030;21.952;2023-05-11T03:00:48;99069.25;;;3.16;62.24
57847;BME280;43675;50.030;21.952;2023-05-11T03:03:15;99069.77;;;3.15;62.49
57847;BME280;43675;50.030;21.952;2023-05-11T03:05:41;99071.39;;;3.14;62.38
57847;BME280;43675;50.030;21.952;2023-05-11T03:08:08;99072.63;;;3.14;62.45
57847;BME280;43675;50.030;21.952;2023-05-11T03:10:35;99075.50;;;3.14;62.77
57847;BME280;43675;50.030;21.952;2023-05-11T03:13:02;99077.63;;;3.15;63.02
57847;BME280;43675;50.030;21.952;2023-05-11T03:15:29;99079.56;;;3.19;63.04
57847;BME280;43675;50.030;21.952;2023-05-11T03:17:57;99075.35;;;3.24;63.11
57847;BME280;43675;50.030;21.952;2023-05-11T03:20:25;99078.48;;;3.31;62.86
57847;BME280;43675;50.030;21.952;2023-05-11T03:22:53;99079.38;;;3.40;63.16
57847;BME280;43675;50.030;21.952;2023-05-11T03:25:22;99080.14;;;3.49;62.98
57847;BME280;43675;50.030;21.952;2023-05-11T03:27:50;99079.14;;;3.62;62.83
57847;BME280;43675;50.030;21.952;2023-05-11T03:30:19;99077.02;;;3.75;62.90
57847;BME280;43675;50.030;21.952;2023-05-11T03:32:45;99080.02;;;3.90;62.69
57847;BME280;43675;50.030;21.952;2023-05-11T03:35:12;99081.48;;;4.06;62.54
57847;BME280;43675;50.030;21.952;2023-05-11T03:37:40;99081.30;;;4.23;62.50
57847;BME280;43675;50.030;21.952;2023-05-11T03:40:08;99081.48;;;4.39;62.21
57847;BME280;43675;50.030;21.952;2023-05-11T03:42:38;99081.74;;;4.54;62.11
57847;BME280;43675;50.030;21.952;2023-05-11T03:45:06;99081.45;;;4.68;61.97
57847;BME280;43675;50.030;21.952;2023-05-11T03:47:35;99082.95;;;4.82;61.65
57847;BME280;43675;50.030;21.952;2023-05-11T03:50:06;99083.81;;;4.97;61.71
57847;BME280;43675;50.030;21.952;2023-05-11T03:52:34;99085.27;;;5.10;61.85
57847;BME280;43675;50.030;21.952;2023-05-11T03:55:02;99089.46;;;5.27;61.61
57847;BME280;43675;50.030;21.952;2023-05-11T03:57:29;99087.77;;;5.34;61.64
57847;BME280;43675;50.030;21.952;2023-05-11T03:59:55;99091.21;;;5.38;61.49
57847;BME280;43675;50.030;21.952;2023-05-11T04:02:22;99092.55;;;5.41;61.73
57847;BME280;43675;50.030;21.952;2023-05-11T04:04:49;99093.88;;;5.41;61.56
57847;BME280;43675;50.030;21.952;2023-05-11T04:07:16;99091.54;;;5.43;61.52
57847;BME280;43675;50.030;21.952;2023-05-11T04:09:43;99094.93;;;5.45;61.19
57847;BME280;43675;50.030;21.952;2023-05-11T04:12:09;99096.20;;;5.44;61.30
57847;BME280;43675;50.030;21.952;2023-05-11T04:14:36;99092.89;;;5.45;61.25
57847;BME280;43675;50.030;21.952;2023-05-11T04:17:02;99096.05;;;5.47;61.00
57847;BME280;43675;50.030;21.952;2023-05-11T04:19:29;99098.13;;;5.51;61.17
57847;BME280;43675;50.030;21.952;2023-05-11T04:21:55;99096.05;;;5.55;61.01
57847;BME280;43675;50.030;21.952;2023-05-11T04:24:22;99096.83;;;5.62;60.79
57847;BME280;43675;50.030;21.952;2023-05-11T04:26:54;99097.72;;;5.70;60.71
57847;BME280;43675;50.030;21.952;2023-05-11T04:29:21;99095.39;;;5.81;60.65
57847;BME280;43675;50.030;21.952;2023-05-11T04:31:47;99100.22;;;5.95;60.60
57847;BME280;43675;50.030;21.952;2023-05-11T04:34:14;99098.03;;;6.06;60.57
57847;BME280;43675;50.030;21.952;2023-05-11T04:36:40;99102.70;;;6.18;60.33
57847;BME280;43675;50.030;21.952;2023-05-11T04:39:07;99102.89;;;6.30;60.23
57847;BME280;43675;50.030;21.952;2023-05-11T04:41:33;99106.71;;;6.40;60.01
57847;BME280;43675;50.030;21.952;2023-05-11T04:44:00;99101.46;;;6.51;59.84
57847;BME280;43675;50.030;21.952;2023-05-11T04:46:26;99098.38;;;6.67;59.79
57847;BME280;43675;50.030;21.952;2023-05-11T04:48:53;99099.20;;;6.84;59.63
57847;BME280;43675;50.030;21.952;2023-05-11T04:51:19;99099.88;;;7.05;59.25
57847;BME280;43675;50.030;21.952;2023-05-11T04:53:46;99100.34;;;7.27;59.04
57847;BME280;43675;50.030;21.952;2023-05-11T04:56:12;99105.16;;;7.44;58.69
57847;BME280;43675;50.030;21.952;2023-05-11T04:58:39;99104.27;;;7.59;58.34
57847;BME280;43675;50.030;21.952;2023-05-11T05:01:05;99103.00;;;7.72;58.15
57847;BME280;43675;50.030;21.952;2023-05-11T05:03:32;99105.73;;;7.86;57.70
57847;BME280;43675;50.030;21.952;2023-05-11T05:05:58;99104.35;;;7.98;57.63
57847;BME280;43675;50.030;21.952;2023-05-11T05:08:25;99107.39;;;8.09;57.59
57847;BME280;43675;50.030;21.952;2023-05-11T05:10:52;99110.85;;;8.17;57.17
57847;BME280;43675;50.030;21.952;2023-05-11T05:13:18;99112.88;;;8.25;56.95
57847;BME280;43675;50.030;21.952;2023-05-11T05:15:45;99111.85;;;8.33;56.76
57847;BME280;43675;50.030;21.952;2023-05-11T05:18:11;99112.42;;;8.43;56.70
57847;BME280;43675;50.030;21.952;2023-05-11T05:20:38;99111.66;;;8.52;56.36
57847;BME280;43675;50.030;21.952;2023-05-11T05:23:04;99110.18;;;8.60;56.17
57847;BME280;43675;50.030;21.952;2023-05-11T05:25:31;99109.35;;;8.66;56.05
57847;BME280;43675;50.030;21.952;2023-05-11T05:27:57;99109.12;;;8.73;55.94
57847;BME280;43675;50.030;21.952;2023-05-11T05:30:24;99113.11;;;8.80;55.98
57847;BME280;43675;50.030;21.952;2023-05-11T05:32:50;99108.21;;;8.86;55.61
57847;BME280;43675;50.030;21.952;2023-05-11T05:35:17;99115.59;;;8.91;55.61
57847;BME280;43675;50.030;21.952;2023-05-11T05:37:43;99113.58;;;8.97;55.46
57847;BME280;43675;50.030;21.952;2023-05-11T05:40:17;99115.20;;;9.09;55.32
57847;BME280;43675;50.030;21.952;2023-05-11T05:42:43;99114.41;;;9.13;55.09
57847;BME280;43675;50.030;21.952;2023-05-11T05:45:10;99117.08;;;9.19;54.98
57847;BME280;43675;50.030;21.952;2023-05-11T05:47:36;99114.55;;;9.23;54.87
57847;BME280;43675;50.030;21.952;2023-05-11T05:50:03;99116.83;;;9.28;54.75
57847;BME280;43675;50.030;21.952;2023-05-11T05:52:30;99114.42;;;9.34;54.89
57847;BME280;43675;50.030;21.952;2023-05-11T05:54:56;99113.57;;;9.42;54.59
57847;BME280;43675;50.030;21.952;2023-05-11T05:57:23;99118.77;;;9.48;54.54
57847;BME280;43675;50.030;21.952;2023-05-11T05:59:49;99119.13;;;9.54;54.33
57847;BME280;43675;50.030;21.952;2023-05-11T06:02:16;99117.52;;;9.60;54.13
57847;BME280;43675;50.030;21.952;2023-05-11T06:04:42;99119.33;;;9.66;54.08
57847;BME280;43675;50.030;21.952;2023-05-11T06:07:09;99122.02;;;9.75;54.18
57847;BME280;43675;50.030;21.952;2023-05-11T06:09:35;99119.84;;;9.83;54.01
57847;BME280;43675;50.030;21.952;2023-05-11T06:12:02;99119.70;;;9.90;53.96
57847;BME280;43675;50.030;21.952;2023-05-11T06:14:28;99119.98;;;9.98;53.74
57847;BME280;43675;50.030;21.952;2023-05-11T06:16:55;99121.95;;;10.07;53.67
57847;BME280;43675;50.030;21.952;2023-05-11T06:19:21;99123.13;;;10.15;53.70
57847;BME280;43675;50.030;21.952;2023-05-11T06:21:48;99124.29;;;10.24;53.40
57847;BME280;43675;50.030;21.952;2023-05-11T06:24:14;99121.80;;;10.33;53.23
57847;BME280;43675;50.030;21.952;2023-05-11T06:26:41;99125.16;;;10.44;53.11
57847;BME280;43675;50.030;21.952;2023-05-11T06:29:08;99126.27;;;10.55;53.01
57847;BME280;43675;50.030;21.952;2023-05-11T06:31:34;99125.38;;;10.68;52.89
57847;BME280;43675;50.030;21.952;2023-05-11T06:34:01;99125.59;;;10.80;53.01
57847;BME280;43675;50.030;21.952;2023-05-11T06:36:27;99118.64;;;10.91;52.85
57847;BME280;43675;50.030;21.952;2023-05-11T06:38:54;99122.80;;;11.07;52.74
57847;BME280;43675;50.030;21.952;2023-05-11T06:41:20;99116.23;;;11.18;52.58
57847;BME280;43675;50.030;21.952;2023-05-11T06:43:47;99116.19;;;11.30;52.33
57847;BME280;43675;50.030;21.952;2023-05-11T06:46:14;99111.49;;;11.42;52.52
57847;BME280;43675;50.030;21.952;2023-05-11T06:48:41;99112.63;;;11.55;52.49
57847;BME280;43675;50.030;21.952;2023-05-11T06:51:11;99114.42;;;11.66;52.31
57847;BME280;43675;50.030;21.952;2023-05-11T06:53:38;99115.67;;;11.77;52.17
57847;BME280;43675;50.030;21.952;2023-05-11T06:56:04;99115.92;;;11.84;51.73
57847;BME280;43675;50.030;21.952;2023-05-11T06:58:31;99115.67;;;11.89;51.66
57847;BME280;43675;50.030;21.952;2023-05-11T07:00:58;99119.05;;;11.94;51.48
57847;BME280;43675;50.030;21.952;2023-05-11T07:03:24;99116.37;;;12.00;51.41
57847;BME280;43675;50.030;21.952;2023-05-11T07:05:51;99115.73;;;12.07;51.17
57847;BME280;43675;50.030;21.952;2023-05-11T07:08:17;99115.64;;;12.17;51.18
57847;BME280;43675;50.030;21.952;2023-05-11T07:10:44;99111.99;;;12.26;51.10
57847;BME280;43675;50.030;21.952;2023-05-11T07:13:10;99113.39;;;12.37;51.02
57847;BME280;43675;50.030;21.952;2023-05-11T07:15:37;99115.04;;;12.47;51.13
57847;BME280;43675;50.030;21.952;2023-05-11T07:18:03;99117.75;;;12.56;51.07
57847;BME280;43675;50.030;21.952;2023-05-11T07:20:30;99116.95;;;12.64;50.61
57847;BME280;43675;50.030;21.952;2023-05-11T07:22:57;99118.48;;;12.71;50.29
57847;BME280;43675;50.030;21.952;2023-05-11T07:25:24;99115.83;;;12.78;50.67
57847;BME280;43675;50.030;21.952;2023-05-11T07:27:51;99110.80;;;12.88;50.21
57847;BME280;43675;50.030;21.952;2023-05-11T07:30:17;99109.09;;;12.99;50.17
57847;BME280;43675;50.030;21.952;2023-05-11T07:32:44;99106.77;;;13.08;49.91
57847;BME280;43675;50.030;21.952;2023-05-11T07:35:10;99108.52;;;13.13;49.78
57847;BME280;43675;50.030;21.952;2023-05-11T07:37:37;99111.05;;;13.22;49.82
57847;BME280;43675;50.030;21.952;2023-05-11T07:40:04;99112.23;;;13.32;49.74
57847;BME280;43675;50.030;21.952;2023-05-11T07:42:31;99112.64;;;13.43;49.78
57847;BME280;43675;50.030;21.952;2023-05-11T07:44:57;99109.85;;;13.56;49.58
57847;BME280;43675;50.030;21.952;2023-05-11T07:47:24;99113.67;;;13.66;49.44
57847;BME280;43675;50.030;21.952;2023-05-11T07:49:50;99121.82;;;13.73;49.24
57847;BME280;43675;50.030;21.952;2023-05-11T07:52:17;99119.42;;;13.77;48.72
57847;BME280;43675;50.030;21.952;2023-05-11T07:54:43;99120.62;;;13.78;48.79
57847;BME280;43675;50.030;21.952;2023-05-11T07:57:10;99120.53;;;13.81;48.79
57847;BME280;43675;50.030;21.952;2023-05-11T07:59:36;99120.23;;;13.83;48.76
57847;BME280;43675;50.030;21.952;2023-05-11T08:02:05;99123.34;;;13.86;48.74
57847;BME280;43675;50.030;21.952;2023-05-11T08:04:32;99117.70;;;13.89;48.64
57847;BME280;43675;50.030;21.952;2023-05-11T08:06:59;99122.55;;;13.95;48.60
57847;BME280;43675;50.030;21.952;2023-05-11T08:09:25;99121.56;;;14.00;48.50
57847;BME280;43675;50.030;21.952;2023-05-11T08:11:53;99126.94;;;14.05;48.36
57847;BME280;43675;50.030;21.952;2023-05-11T08:14:19;99120.66;;;14.09;48.26
57847;BME280;43675;50.030;21.952;2023-05-11T08:16:46;99118.36;;;14.13;48.14
57847;BME280;43675;50.030;21.952;2023-05-11T08:19:13;99118.83;;;14.20;47.92
57847;BME280;43675;50.030;21.952;2023-05-11T08:21:39;99117.70;;;14.27;47.98
57847;BME280;43675;50.030;21.952;2023-05-11T08:24:06;99118.29;;;14.36;47.91
57847;BME280;43675;50.030;21.952;2023-05-11T08:26:33;99111.75;;;14.46;47.77
57847;BME280;43675;50.030;21.952;2023-05-11T08:28:59;99118.16;;;14.55;47.63
57847;BME280;43675;50.030;21.952;2023-05-11T08:31:26;99121.49;;;14.62;47.35
57847;BME280;43675;50.030;21.952;2023-05-11T08:33:52;99122.45;;;14.67;47.17
57847;BME280;43675;50.030;21.952;2023-05-11T08:36:19;99116.73;;;14.71;47.16
57847;BME280;43675;50.030;21.952;2023-05-11T08:38:45;99117.02;;;14.75;46.68
57847;BME280;43675;50.030;21.952;2023-05-11T08:41:12;99115.63;;;14.78;46.66
57847;BME280;43675;50.030;21.952;2023-05-11T08:43:39;99110.67;;;14.83;46.80
57847;BME280;43675;50.030;21.952;2023-05-11T08:46:07;99107.95;;;14.91;46.59
57847;BME280;43675;50.030;21.952;2023-05-11T08:48:34;99109.26;;;14.99;46.38
57847;BME280;43675;50.030;21.952;2023-05-11T08:51:01;99108.63;;;15.04;45.84
57847;BME280;43675;50.030;21.952;2023-05-11T08:53:28;99109.58;;;15.08;45.92
57847;BME280;43675;50.030;21.952;2023-05-11T08:55:57;99104.76;;;15.14;45.89
57847;BME280;43675;50.030;21.952;2023-05-11T08:58:25;99104.84;;;15.22;45.82
57847;BME280;43675;50.030;21.952;2023-05-11T09:00:53;99103.29;;;15.30;45.54
57847;BME280;43675;50.030;21.952;2023-05-11T09:03:20;99099.02;;;15.36;45.57
57847;BME280;43675;50.030;21.952;2023-05-11T09:05:48;99097.98;;;15.45;45.23
57847;BME280;43675;50.030;21.952;2023-05-11T09:08:17;99100.96;;;15.53;44.82
57847;BME280;43675;50.030;21.952;2023-05-11T09:10:44;99094.66;;;15.62;44.84
57847;BME280;43675;50.030;21.952;2023-05-11T09:13:11;99093.17;;;15.71;44.66
57847;BME280;43675;50.030;21.952;2023-05-11T09:15:38;99092.29;;;15.80;44.59
57847;BME280;43675;50.030;21.952;2023-05-11T09:18:05;99094.55;;;15.92;44.68
57847;BME280;43675;50.030;21.952;2023-05-11T09:20:33;99092.26;;;16.04;44.10
57847;BME280;43675;50.030;21.952;2023-05-11T09:23:00;99097.20;;;16.15;43.88
57847;BME280;43675;50.030;21.952;2023-05-11T09:25:29;99094.45;;;16.21;43.16
57847;BME280;43675;50.030;21.952;2023-05-11T09:27:58;99092.72;;;16.24;43.08
57847;BME280;43675;50.030;21.952;2023-05-11T09:30:25;99094.44;;;16.31;43.26
57847;BME280;43675;50.030;21.952;2023-05-11T09:35:27;99093.27;;;16.41;43.14
57847;BME280;43675;50.030;21.952;2023-05-11T09:38:10;99086.19;;;16.44;42.87
57847;BME280;43675;50.030;21.952;2023-05-11T09:40:54;99085.18;;;16.48;42.93
57847;BME280;43675;50.030;21.952;2023-05-11T09:43:25;99083.23;;;16.54;42.68
57847;BME280;43675;50.030;21.952;2023-05-11T09:45:54;99080.51;;;16.61;42.79
57847;BME280;43675;50.030;21.952;2023-05-11T09:50:48;99074.27;;;16.73;42.26
57847;BME280;43675;50.030;21.952;2023-05-11T09:53:15;99066.77;;;16.81;41.81
57847;BME280;43675;50.030;21.952;2023-05-11T09:55:54;99068.18;;;16.91;41.73
57847;BME280;43675;50.030;21.952;2023-05-11T09:58:20;99063.54;;;17.01;41.44
57847;BME280;43675;50.030;21.952;2023-05-11T10:00:50;99058.70;;;17.11;41.26
57847;BME280;43675;50.030;21.952;2023-05-11T10:03:17;99060.05;;;17.17;40.91
57847;BME280;43675;50.030;21.952;2023-05-11T10:06:02;99055.11;;;17.24;40.44
57847;BME280;43675;50.030;21.952;2023-05-11T10:08:30;99054.23;;;17.31;40.30
57847;BME280;43675;50.030;21.952;2023-05-11T10:10:57;99048.52;;;17.38;40.21
57847;BME280;43675;50.030;21.952;2023-05-11T10:13:24;99045.45;;;17.42;40.13
57847;BME280;43675;50.030;21.952;2023-05-11T10:15:51;99045.50;;;17.49;39.62
57847;BME280;43675;50.030;21.952;2023-05-11T10:18:20;99043.50;;;17.60;39.41
57847;BME280;43675;50.030;21.952;2023-05-11T10:20:47;99035.70;;;17.65;38.96
57847;BME280;43675;50.030;21.952;2023-05-11T10:23:14;99038.47;;;17.69;38.51
57847;BME280;43675;50.030;21.952;2023-05-11T10:25:41;99039.57;;;17.75;38.68
57847;BME280;43675;50.030;21.952;2023-05-11T10:28:09;99039.06;;;17.81;38.56
57847;BME280;43675;50.030;21.952;2023-05-11T10:30:36;99040.45;;;17.89;38.39
57847;BME280;43675;50.030;21.952;2023-05-11T10:33:05;99039.05;;;17.94;38.00
57847;BME280;43675;50.030;21.952;2023-05-11T10:35:32;99034.83;;;17.94;37.36
57847;BME280;43675;50.030;21.952;2023-05-11T10:37:59;99030.04;;;17.94;37.48
57847;BME280;43675;50.030;21.952;2023-05-11T10:40:26;99030.86;;;17.95;37.38
57847;BME280;43675;50.030;21.952;2023-05-11T10:45:38;99027.54;;;18.08;37.00
57847;BME280;43675;50.030;21.952;2023-05-11T10:51:20;99020.81;;;18.33;36.10
57847;BME280;43675;50.030;21.952;2023-05-11T11:00:23;99013.94;;;18.62;35.23
57847;BME280;43675;50.030;21.952;2023-05-11T11:03:10;99013.37;;;18.76;34.83
57847;BME280;43675;50.030;21.952;2023-05-11T11:05:37;99014.08;;;18.76;34.52
57847;BME280;43675;50.030;21.952;2023-05-11T11:08:06;99013.45;;;18.73;34.69
57847;BME280;43675;50.030;21.952;2023-05-11T11:10:40;99008.27;;;18.70;34.91
57847;BME280;43675;50.030;21.952;2023-05-11T11:13:09;99004.18;;;18.64;34.77
57847;BME280;43675;50.030;21.952;2023-05-11T11:18:21;98998.55;;;18.68;34.60
57847;BME280;43675;50.030;21.952;2023-05-11T11:20:53;98997.64;;;18.75;34.09
57847;BME280;43675;50.030;21.952;2023-05-11T11:26:06;98993.35;;;18.90;34.10
57847;BME280;43675;50.030;21.952;2023-05-11T11:31:25;98995.63;;;19.04;33.59
57847;BME280;43675;50.030;21.952;2023-05-11T11:33:53;98993.63;;;19.05;33.32
57847;BME280;43675;50.030;21.952;2023-05-11T11:42:39;98988.90;;;19.32;33.72
57847;BME280;43675;50.030;21.952;2023-05-11T11:45:24;98992.96;;;19.28;33.65
57847;BME280;43675;50.030;21.952;2023-05-11T11:48:11;98992.14;;;19.28;33.70
57847;BME280;43675;50.030;21.952;2023-05-11T11:50:39;98986.81;;;19.46;33.41
57847;BME280;43675;50.030;21.952;2023-05-11T11:53:09;98985.80;;;19.70;32.64
57847;BME280;43675;50.030;21.952;2023-05-11T11:55:47;98986.21;;;19.94;32.67
57847;BME280;43675;50.030;21.952;2023-05-11T12:01:22;98988.25;;;20.20;32.31
57847;BME280;43675;50.030;21.952;2023-05-11T12:06:44;98981.41;;;20.08;32.10
57847;BME280;43675;50.030;21.952;2023-05-11T12:09:17;98976.16;;;20.01;32.02
57847;BME280;43675;50.030;21.952;2023-05-11T12:11:45;98978.04;;;19.93;32.59
57847;BME280;43675;50.030;21.952;2023-05-11T12:14:12;98974.95;;;19.81;32.38
57847;BME280;43675;50.030;21.952;2023-05-11T12:16:38;98978.73;;;19.71;32.44
57847;BME280;43675;50.030;21.952;2023-05-11T12:19:05;98975.97;;;19.64;32.38
57847;BME280;43675;50.030;21.952;2023-05-11T12:21:31;98970.55;;;19.57;32.23
57847;BME280;43675;50.030;21.952;2023-05-11T12:24:04;98973.16;;;19.57;32.09
57847;BME280;43675;50.030;21.952;2023-05-11T12:26:32;98973.45;;;19.60;32.23
57847;BME280;43675;50.030;21.952;2023-05-11T12:29:09;98967.92;;;19.63;32.10
57847;BME280;43675;50.030;21.952;2023-05-11T12:31:37;98975.33;;;19.67;32.04
57847;BME280;43675;50.030;21.952;2023-05-11T12:34:03;98967.73;;;19.70;31.90
57847;BME280;43675;50.030;21.952;2023-05-11T12:36:32;98966.48;;;19.72;31.83
57847;BME280;43675;50.030;21.952;2023-05-11T12:38:58;98965.88;;;19.73;31.64
57847;BME280;43675;50.030;21.952;2023-05-11T12:41:25;98963.78;;;19.80;31.47
57847;BME280;43675;50.030;21.952;2023-05-11T12:43:53;98955.33;;;19.89;31.29
57847;BME280;43675;50.030;21.952;2023-05-11T12:46:20;98957.63;;;19.97;31.45
57847;BME280;43675;50.030;21.952;2023-05-11T12:48:49;98951.33;;;20.03;31.40
57847;BME280;43675;50.030;21.952;2023-05-11T12:51:42;98955.52;;;20.09;31.48
57847;BME280;43675;50.030;21.952;2023-05-11T12:54:09;98955.05;;;20.13;31.50
57847;BME280;43675;50.030;21.952;2023-05-11T12:56:45;98947.15;;;20.17;31.25
57847;BME280;43675;50.030;21.952;2023-05-11T13:02:16;98943.89;;;20.14;31.33
57847;BME280;43675;50.030;21.952;2023-05-11T13:04:45;98945.23;;;20.10;31.29
57847;BME280;43675;50.030;21.952;2023-05-11T13:07:13;98943.59;;;20.07;31.12
57847;BME280;43675;50.030;21.952;2023-05-11T13:09:40;98941.98;;;19.98;31.02
57847;BME280;43675;50.030;21.952;2023-05-11T13:12:15;98942.47;;;19.91;31.07
57847;BME280;43675;50.030;21.952;2023-05-11T13:14:49;98942.41;;;19.94;31.20
57847;BME280;43675;50.030;21.952;2023-05-11T13:17:33;98939.56;;;20.11;31.31
57847;BME280;43675;50.030;21.952;2023-05-11T13:20:30;98943.24;;;20.26;30.93
57847;BME280;43675;50.030;21.952;2023-05-11T13:25:31;98934.02;;;20.70;30.68
57847;BME280;43675;50.030;21.952;2023-05-11T13:27:58;98929.84;;;20.92;30.53
57847;BME280;43675;50.030;21.952;2023-05-11T13:30:24;98927.42;;;21.09;30.22
57847;BME280;43675;50.030;21.952;2023-05-11T13:32:51;98930.11;;;21.16;29.86
57847;BME280;43675;50.030;21.952;2023-05-11T13:35:18;98929.39;;;21.13;29.55
57847;BME280;43675;50.030;21.952;2023-05-11T13:37:44;98923.27;;;21.07;29.55
57847;BME280;43675;50.030;21.952;2023-05-11T13:40:12;98922.52;;;21.06;29.56
57847;BME280;43675;50.030;21.952;2023-05-11T13:42:39;98916.80;;;20.99;29.52
57847;BME280;43675;50.030;21.952;2023-05-11T13:45:06;98919.48;;;20.97;29.38
57847;BME280;43675;50.030;21.952;2023-05-11T13:47:33;98917.73;;;20.98;29.27
57847;BME280;43675;50.030;21.952;2023-05-11T13:49:59;98918.92;;;21.03;29.30
57847;BME280;43675;50.030;21.952;2023-05-11T13:52:26;98915.27;;;21.02;29.35
57847;BME280;43675;50.030;21.952;2023-05-11T13:54:52;98916.86;;;20.94;29.08
57847;BME280;43675;50.030;21.952;2023-05-11T13:57:19;98915.89;;;20.84;28.88